Terminal Aerodrome Forecast
Issued by NWS Wilmington, NC

Home | Current Version | Previous Version | Text Only | Print | Product List | Glossary On
Versions: 1 2 3 4 5 6 7 8 9 10 11 12 13 14 15 16 17 18 19 20 21 22 23 24
000
FTUS42 KILM 280500
TAFLBT
TAF
KLBT 280520Z 2806/0106 04007KT P6SM SCT200
     FM281300 04011G17KT P6SM SCT100 BKN200
     FM282100 03011KT P6SM SCT025 BKN050 BKN100=

USA.gov is the U.S. government's official web portal to all federal, state and local government web resources and services.